createdAt,value
2023-01-26T00:00:33.047Z,101062.94
2023-01-26T00:05:40.534Z,101066.34
2023-01-26T00:10:50.963Z,101073.97
2023-01-26T00:15:54.756Z,101066.34
2023-01-26T00:21:00.525Z,101063.81
2023-01-26T00:26:08.131Z,101040.91
2023-01-26T00:31:20.794Z,101051.97
2023-01-26T00:36:25.172Z,101054.50
2023-01-26T00:41:47.872Z,101047.75
2023-01-26T00:46:52.459Z,101054.56
2023-01-26T00:51:56.408Z,101060.50
2023-01-26T00:57:00.411Z,100989.16
2023-01-26T01:02:04.807Z,101063.06
2023-01-26T01:07:08.743Z,101060.53
2023-01-26T01:12:13.909Z,101067.31
2023-01-26T01:17:17.959Z,101047.81
2023-01-26T01:22:22.300Z,101069.03
2023-01-26T01:27:26.751Z,101047.81
2023-01-26T01:32:30.757Z,101058.84
2023-01-26T01:37:34.651Z,101052.06
2023-01-26T01:42:38.698Z,101038.50
2023-01-26T01:47:42.568Z,101048.69
2023-01-26T01:52:47.426Z,101066.50
2023-01-26T01:57:56.098Z,101073.34
2023-01-26T02:03:12.075Z,101085.22
2023-01-26T02:08:19.875Z,101073.34
2023-01-26T02:13:25.711Z,101084.38
2023-01-26T02:18:30.093Z,101075.88
2023-01-26T02:24:13.061Z,101080.13
2023-01-26T02:29:16.971Z,101072.50
2023-01-26T02:34:21.131Z,101063.16
2023-01-26T02:40:04.899Z,101061.44
2023-01-26T02:45:17.228Z,101080.13
2023-01-26T02:50:22.830Z,101075.88
2023-01-26T02:55:26.951Z,101069.09
2023-01-26T03:00:37.900Z,101082.69
2023-01-26T03:05:42.663Z,101075.88
2023-01-26T03:10:48.249Z,101034.28
2023-01-26T03:15:55.245Z,101103.91
2023-01-26T03:21:19.720Z,101086.06
2023-01-26T03:26:42.062Z,101090.31
2023-01-26T03:31:45.979Z,101034.28
2023-01-26T03:36:52.104Z,101114.06
2023-01-26T03:42:15.697Z,101117.44
2023-01-26T03:47:38.342Z,101140.41
2023-01-26T03:53:01.042Z,101138.69
2023-01-26T03:58:04.925Z,101142.94
2023-01-26T04:03:28.978Z,101145.47
2023-01-26T04:08:32.797Z,101165.03
2023-01-26T04:13:58.487Z,101148.03
2023-01-26T04:19:25.378Z,101149.72
2023-01-26T04:24:29.515Z,101142.09
2023-01-26T04:29:34.334Z,101159.94
2023-01-26T04:34:38.370Z,101177.78
2023-01-26T04:39:49.556Z,101185.41
2023-01-26T04:44:54.898Z,101185.38
2023-01-26T04:49:59.833Z,101203.22
2023-01-26T04:55:03.775Z,101213.44
2023-01-26T05:00:11.484Z,101210.03
2023-01-26T05:05:15.487Z,101222.81
2023-01-26T05:10:19.940Z,101220.28
2023-01-26T05:15:50.061Z,101244.09
2023-01-26T05:21:17.320Z,101255.16
2023-01-26T05:26:25.851Z,101256.88
2023-01-26T05:31:33.805Z,101255.16
2023-01-26T05:36:37.586Z,101264.53
2023-01-26T05:41:41.595Z,101279.81
2023-01-26T05:46:54.857Z,101261.97
2023-01-26T05:51:59.933Z,101278.97
2023-01-26T05:57:06.023Z,101271.31
2023-01-26T06:02:13.836Z,101280.69
2023-01-26T06:07:21.839Z,101274.72
2023-01-26T06:12:40.783Z,101292.59
2023-01-26T06:17:54.599Z,101290.03
2023-01-26T06:23:02.376Z,101293.44
2023-01-26T06:28:09.512Z,101300.25
2023-01-26T06:33:13.547Z,101296.00
2023-01-26T06:38:17.503Z,101312.13
2023-01-26T06:43:22.601Z,101324.03
2023-01-26T06:48:29.048Z,101314.66
2023-01-26T06:53:42.628Z,101319.81
2023-01-26T06:58:53.917Z,101315.56
2023-01-26T07:04:28.609Z,101322.34
2023-01-26T07:09:32.588Z,101336.81
2023-01-26T07:14:36.703Z,101273.84
2023-01-26T07:19:40.788Z,101322.34
2023-01-26T07:24:44.611Z,101315.50
2023-01-26T07:29:49.645Z,101313.81
2023-01-26T07:34:53.350Z,101324.00
2023-01-26T07:39:57.676Z,101327.41
2023-01-26T07:45:05.303Z,101323.19
2023-01-26T07:50:11.186Z,101313.00
2023-01-26T07:55:15.805Z,101317.25
2023-01-26T08:00:20.726Z,101318.97
2023-01-26T08:05:24.464Z,101247.50
2023-01-26T08:10:32.425Z,101314.72
2023-01-26T08:15:36.262Z,101257.69
2023-01-26T08:20:41.050Z,101321.50
2023-01-26T08:25:44.947Z,101328.31
2023-01-26T08:30:49.147Z,101320.66
2023-01-26T08:35:52.936Z,101328.31
2023-01-26T08:40:58.540Z,101324.91
2023-01-26T08:46:04.774Z,101312.16
2023-01-26T08:51:09.388Z,101258.56
2023-01-26T08:56:14.468Z,101317.25
2023-01-26T09:01:18.648Z,101313.84
2023-01-26T09:06:22.722Z,101311.31
2023-01-26T09:11:26.645Z,101310.44
2023-01-26T09:16:30.698Z,101314.72
2023-01-26T09:21:34.619Z,101233.91
2023-01-26T09:26:38.920Z,101310.44
2023-01-26T09:31:43.156Z,101316.38
2023-01-26T09:36:47.100Z,101335.06
2023-01-26T09:41:57.533Z,101325.69
2023-01-26T09:47:11.124Z,101316.34
2023-01-26T09:52:29.235Z,101319.75
2023-01-26T09:57:50.143Z,101315.50
2023-01-26T10:03:11.797Z,101318.03
2023-01-26T10:08:19.527Z,101327.34
2023-01-26T10:13:24.153Z,101325.63
2023-01-26T10:18:35.407Z,101321.38
2023-01-26T10:23:48.833Z,101227.75
2023-01-26T10:28:54.011Z,101268.59
2023-01-26T10:34:11.620Z,101300.09
2023-01-26T10:39:18.759Z,101293.28
2023-01-26T10:44:33.707Z,101301.75
2023-01-26T10:49:37.614Z,101309.41
2023-01-26T10:54:44.506Z,101282.19
2023-01-26T10:59:58.868Z,101277.97
2023-01-26T11:05:16.614Z,101282.22
2023-01-26T11:10:28.536Z,101272.03
2023-01-26T11:15:40.988Z,101276.28
2023-01-26T11:20:53.750Z,101262.69
2023-01-26T11:26:25.474Z,101255.88
2023-01-26T11:31:56.047Z,101245.69
2023-01-26T11:37:05.059Z,101241.44
2023-01-26T11:42:58.664Z,101231.25
2023-01-26T11:48:20.529Z,101223.63
2023-01-26T11:53:47.359Z,101223.63
2023-01-26T11:59:22.471Z,101223.63
2023-01-26T12:04:28.633Z,101220.22
2023-01-26T12:09:44.258Z,101231.25
2023-01-26T12:14:52.119Z,101229.56
2023-01-26T12:20:08.977Z,101218.53
2023-01-26T12:25:29.480Z,101209.19
2023-01-26T12:30:42.651Z,101198.97
2023-01-26T12:35:59.098Z,101208.31
2023-01-26T12:41:40.475Z,101210.84
2023-01-26T12:46:51.746Z,101204.06
2023-01-26T12:52:08.503Z,101203.22
2023-01-26T12:57:25.831Z,101178.53
2023-01-26T13:02:34.893Z,101184.53
2023-01-26T13:07:41.156Z,101171.75
2023-01-26T13:13:21.093Z,101165.81
2023-01-26T13:18:50.526Z,101157.31
2023-01-26T13:23:54.490Z,101162.38
2023-01-26T13:29:32.629Z,101154.75
2023-01-26T13:34:57.002Z,101140.31
2023-01-26T13:40:06.495Z,101131.84
2023-01-26T13:45:43.853Z,101127.59
2023-01-26T13:50:52.813Z,101113.16
2023-01-26T13:56:00.752Z,101114.84
2023-01-26T14:01:06.661Z,101109.78
2023-01-26T14:06:16.667Z,101111.47
2023-01-26T14:11:24.439Z,101097.03
2023-01-26T14:16:38.619Z,101079.22
2023-01-26T14:21:50.555Z,101083.47
2023-01-26T14:26:54.578Z,101069.03
2023-01-26T14:32:00.730Z,101079.22
2023-01-26T14:37:16.206Z,101089.41
2023-01-26T14:42:21.592Z,101066.50
2023-01-26T14:47:33.637Z,101052.06
2023-01-26T14:52:45.930Z,101050.38
2023-01-26T14:57:49.950Z,101021.50
2023-01-26T15:02:56.826Z,101055.44
2023-01-26T15:08:03.374Z,101035.09
2023-01-26T15:13:16.659Z,101043.56
2023-01-26T15:18:21.859Z,101036.78
2023-01-26T15:23:30.367Z,101039.31
2023-01-26T15:28:35.351Z,101041.00
2023-01-26T15:33:52.294Z,101034.22
2023-01-26T15:39:14.050Z,101028.28
2023-01-26T15:44:20.842Z,101018.09
2023-01-26T15:49:24.704Z,101021.47
2023-01-26T15:54:28.779Z,101009.56
2023-01-26T15:59:32.523Z,101003.59
2023-01-26T16:04:36.425Z,100985.78
2023-01-26T16:09:41.762Z,100973.03
2023-01-26T16:14:46.095Z,100972.19
2023-01-26T16:19:49.937Z,100965.38
2023-01-26T16:24:53.741Z,100935.66
2023-01-26T16:29:57.627Z,100934.00
2023-01-26T16:35:01.600Z,100908.59
2023-01-26T16:40:07.798Z,100901.81
2023-01-26T16:45:21.933Z,100906.06
2023-01-26T16:50:27.443Z,100805.19
2023-01-26T16:55:31.368Z,100887.44
2023-01-26T17:00:35.225Z,100873.88
2023-01-26T17:05:40.032Z,100856.91
2023-01-26T17:10:59.855Z,100872.19
2023-01-26T17:16:06.636Z,100856.94
2023-01-26T17:21:10.581Z,100781.47
2023-01-26T17:26:17.689Z,100844.22
2023-01-26T17:31:23.257Z,100842.53
2023-01-26T17:36:27.035Z,100837.44
2023-01-26T17:41:31.023Z,100837.44
2023-01-26T17:46:34.758Z,100829.81
2023-01-26T17:51:41.292Z,100824.72
2023-01-26T17:56:45.033Z,100828.09
2023-01-26T18:01:49.120Z,100819.59
2023-01-26T18:06:52.917Z,100808.56
2023-01-26T18:11:56.887Z,100789.91
2023-01-26T18:17:01.108Z,100800.91
2023-01-26T18:22:04.936Z,100806.84
2023-01-26T18:27:09.097Z,100794.97
2023-01-26T18:32:13.257Z,100781.38
2023-01-26T18:37:16.946Z,100780.53
2023-01-26T18:42:20.986Z,100740.75
2023-01-26T18:47:24.750Z,100761.94
2023-01-26T18:52:30.776Z,100788.22
2023-01-26T18:57:35.442Z,100786.53
2023-01-26T19:02:39.381Z,100791.63
2023-01-26T19:07:43.316Z,100794.16
2023-01-26T19:12:50.323Z,100782.28
2023-01-26T19:17:54.323Z,100759.41
2023-01-26T19:22:59.178Z,100797.56
2023-01-26T19:28:03.308Z,100778.91
2023-01-26T19:33:25.581Z,100767.88
2023-01-26T19:38:30.808Z,100739.91
2023-01-26T19:43:34.985Z,100733.13
2023-01-26T19:48:38.955Z,100726.34
2023-01-26T19:53:45.880Z,100724.63
2023-01-26T19:58:55.090Z,100721.25
2023-01-26T20:04:01.289Z,100717.00
2023-01-26T20:09:07.337Z,100709.38
2023-01-26T20:14:12.107Z,100705.13
2023-01-26T20:19:16.096Z,100693.25
2023-01-26T20:24:20.784Z,100668.69
2023-01-26T20:29:25.627Z,100673.75
2023-01-26T20:34:29.668Z,100668.66
2023-01-26T20:39:33.441Z,100638.97
2023-01-26T20:44:40.237Z,100637.25
2023-01-26T20:49:45.411Z,100629.63
2023-01-26T20:54:49.411Z,100624.53
2023-01-26T20:59:53.236Z,100611.81
2023-01-26T21:04:57.138Z,100615.19
2023-01-26T21:10:01.186Z,100601.59
2023-01-26T21:15:08.459Z,100600.72
2023-01-26T21:20:14.449Z,100589.69
2023-01-26T21:25:18.461Z,100582.91
2023-01-26T21:30:22.469Z,100584.59
2023-01-26T21:35:26.255Z,100595.66
2023-01-26T21:40:30.190Z,100572.78
2023-01-26T21:45:54.040Z,100555.81
2023-01-26T21:51:18.100Z,100550.72
2023-01-26T21:56:21.939Z,100527.00
2023-01-26T22:01:26.121Z,100511.75
2023-01-26T22:06:30.742Z,100496.41
2023-01-26T22:11:34.698Z,100453.22
2023-01-26T22:16:39.257Z,100464.13
2023-01-26T22:21:43.642Z,100464.97
2023-01-26T22:26:48.248Z,100468.41
2023-01-26T22:31:53.745Z,100465.00
2023-01-26T22:36:57.651Z,100457.34
2023-01-26T22:42:01.587Z,100444.63
2023-01-26T22:47:05.421Z,100428.50
2023-01-26T22:52:09.359Z,100420.06
2023-01-26T22:57:13.214Z,100387.06
2023-01-26T23:02:16.925Z,100399.59
2023-01-26T23:07:20.770Z,100378.44
2023-01-26T23:12:24.492Z,100405.44
2023-01-26T23:17:28.860Z,100423.19
2023-01-26T23:22:33.003Z,100411.25
2023-01-26T23:27:36.865Z,100410.38
2023-01-26T23:32:40.698Z,100421.34
2023-01-26T23:37:44.458Z,100410.31
2023-01-26T23:43:06.691Z,100397.53
2023-01-26T23:48:12.656Z,100403.34
2023-01-26T23:53:16.415Z,100389.88
2023-01-26T23:58:20.774Z,100389.75
